sensor_id;sensor_type;location;lat;lon;timestamp;P1;durP1;ratioP1;P2;durP2;ratioP2
19810;SDS011;10065;49.632;8.346;2023-10-13T00:02:14;15.63;;;8.37;;
19810;SDS011;10065;49.632;8.346;2023-10-13T00:04:45;23.10;;;9.33;;
19810;SDS011;10065;49.632;8.346;2023-10-13T00:07:13;21.63;;;9.07;;
19810;SDS011;10065;49.632;8.346;2023-10-13T00:09:41;19.77;;;8.97;;
19810;SDS011;10065;49.632;8.346;2023-10-13T00:12:10;15.60;;;8.37;;
19810;SDS011;10065;49.632;8.346;2023-10-13T00:14:40;20.53;;;9.40;;
19810;SDS011;10065;49.632;8.346;2023-10-13T00:17:11;17.90;;;9.50;;
19810;SDS011;10065;49.632;8.346;2023-10-13T00:19:46;21.37;;;9.97;;
19810;SDS011;10065;49.632;8.346;2023-10-13T00:22:19;16.03;;;9.47;;
19810;SDS011;10065;49.632;8.346;2023-10-13T00:24:49;24.53;;;9.40;;
19810;SDS011;10065;49.632;8.346;2023-10-13T00:27:19;18.97;;;9.43;;
19810;SDS011;10065;49.632;8.346;2023-10-13T00:30:00;25.63;;;10.03;;
19810;SDS011;10065;49.632;8.346;2023-10-13T00:32:46;21.13;;;9.80;;
19810;SDS011;10065;49.632;8.346;2023-10-13T00:35:21;22.20;;;10.07;;
19810;SDS011;10065;49.632;8.346;2023-10-13T00:37:54;14.87;;;8.87;;
19810;SDS011;10065;49.632;8.346;2023-10-13T00:40:23;22.07;;;9.10;;
19810;SDS011;10065;49.632;8.346;2023-10-13T00:43:07;24.07;;;9.13;;
19810;SDS011;10065;49.632;8.346;2023-10-13T00:45:55;24.20;;;9.60;;
19810;SDS011;10065;49.632;8.346;2023-10-13T00:48:27;19.87;;;9.33;;
19810;SDS011;10065;49.632;8.346;2023-10-13T00:51:00;18.27;;;9.17;;
19810;SDS011;10065;49.632;8.346;2023-10-13T00:53:29;19.57;;;9.17;;
19810;SDS011;10065;49.632;8.346;2023-10-13T00:56:00;16.90;;;8.60;;
19810;SDS011;10065;49.632;8.346;2023-10-13T00:58:34;17.00;;;8.40;;
19810;SDS011;10065;49.632;8.346;2023-10-13T01:01:05;17.93;;;7.73;;
19810;SDS011;10065;49.632;8.346;2023-10-13T01:03:45;14.30;;;8.10;;
19810;SDS011;10065;49.632;8.346;2023-10-13T01:06:15;16.37;;;8.10;;
19810;SDS011;10065;49.632;8.346;2023-10-13T01:08:44;22.47;;;9.23;;
19810;SDS011;10065;49.632;8.346;2023-10-13T01:11:17;15.37;;;8.50;;
19810;SDS011;10065;49.632;8.346;2023-10-13T01:13:46;21.07;;;8.20;;
19810;SDS011;10065;49.632;8.346;2023-10-13T01:16:17;15.13;;;8.53;;
19810;SDS011;10065;49.632;8.346;2023-10-13T01:18:48;17.13;;;8.73;;
19810;SDS011;10065;49.632;8.346;2023-10-13T01:21:15;17.27;;;8.93;;
19810;SDS011;10065;49.632;8.346;2023-10-13T01:23:47;19.10;;;8.20;;
19810;SDS011;10065;49.632;8.346;2023-10-13T01:26:17;17.07;;;8.43;;
19810;SDS011;10065;49.632;8.346;2023-10-13T01:28:50;21.33;;;9.07;;
19810;SDS011;10065;49.632;8.346;2023-10-13T01:31:20;21.47;;;8.30;;
19810;SDS011;10065;49.632;8.346;2023-10-13T01:33:58;18.47;;;8.13;;
19810;SDS011;10065;49.632;8.346;2023-10-13T01:36:26;18.57;;;8.03;;
19810;SDS011;10065;49.632;8.346;2023-10-13T01:38:55;17.03;;;8.83;;
19810;SDS011;10065;49.632;8.346;2023-10-13T01:41:27;17.53;;;8.23;;
19810;SDS011;10065;49.632;8.346;2023-10-13T01:43:57;19.27;;;8.87;;
19810;SDS011;10065;49.632;8.346;2023-10-13T01:46:24;16.93;;;7.90;;
19810;SDS011;10065;49.632;8.346;2023-10-13T01:48:54;15.47;;;7.60;;
19810;SDS011;10065;49.632;8.346;2023-10-13T01:51:23;18.50;;;7.63;;
19810;SDS011;10065;49.632;8.346;2023-10-13T01:53:50;17.17;;;8.10;;
19810;SDS011;10065;49.632;8.346;2023-10-13T01:56:24;13.73;;;8.30;;
19810;SDS011;10065;49.632;8.346;2023-10-13T01:58:52;14.30;;;7.43;;
19810;SDS011;10065;49.632;8.346;2023-10-13T02:01:20;17.80;;;8.03;;
19810;SDS011;10065;49.632;8.346;2023-10-13T02:03:53;18.97;;;8.43;;
19810;SDS011;10065;49.632;8.346;2023-10-13T02:06:29;15.13;;;7.90;;
19810;SDS011;10065;49.632;8.346;2023-10-13T02:09:00;14.80;;;8.03;;
19810;SDS011;10065;49.632;8.346;2023-10-13T02:11:41;20.93;;;8.63;;
19810;SDS011;10065;49.632;8.346;2023-10-13T02:14:12;16.70;;;8.70;;
19810;SDS011;10065;49.632;8.346;2023-10-13T02:16:42;16.43;;;7.73;;
19810;SDS011;10065;49.632;8.346;2023-10-13T02:19:13;17.00;;;7.90;;
19810;SDS011;10065;49.632;8.346;2023-10-13T02:21:44;17.07;;;8.93;;
19810;SDS011;10065;49.632;8.346;2023-10-13T02:24:12;19.07;;;8.50;;
19810;SDS011;10065;49.632;8.346;2023-10-13T02:26:45;16.50;;;7.53;;
19810;SDS011;10065;49.632;8.346;2023-10-13T02:29:12;17.73;;;8.03;;
19810;SDS011;10065;49.632;8.346;2023-10-13T02:31:40;17.10;;;8.57;;
19810;SDS011;10065;49.632;8.346;2023-10-13T02:34:08;17.60;;;8.23;;
19810;SDS011;10065;49.632;8.346;2023-10-13T02:36:39;16.53;;;7.50;;
19810;SDS011;10065;49.632;8.346;2023-10-13T02:39:13;18.17;;;8.67;;
19810;SDS011;10065;49.632;8.346;2023-10-13T02:41:43;16.20;;;8.07;;
19810;SDS011;10065;49.632;8.346;2023-10-13T02:44:15;21.50;;;8.63;;
19810;SDS011;10065;49.632;8.346;2023-10-13T02:46:53;19.20;;;8.17;;
19810;SDS011;10065;49.632;8.346;2023-10-13T02:49:22;18.40;;;8.67;;
19810;SDS011;10065;49.632;8.346;2023-10-13T02:51:52;24.43;;;8.50;;
19810;SDS011;10065;49.632;8.346;2023-10-13T02:54:22;17.97;;;7.87;;
19810;SDS011;10065;49.632;8.346;2023-10-13T02:56:56;22.73;;;8.67;;
19810;SDS011;10065;49.632;8.346;2023-10-13T02:59:25;16.80;;;7.20;;
19810;SDS011;10065;49.632;8.346;2023-10-13T03:02:05;14.67;;;8.27;;
19810;SDS011;10065;49.632;8.346;2023-10-13T03:04:44;13.43;;;8.30;;
19810;SDS011;10065;49.632;8.346;2023-10-13T03:07:12;16.93;;;8.27;;
19810;SDS011;10065;49.632;8.346;2023-10-13T03:09:42;21.40;;;8.40;;
19810;SDS011;10065;49.632;8.346;2023-10-13T03:12:17;16.63;;;8.13;;
19810;SDS011;10065;49.632;8.346;2023-10-13T03:14:46;21.00;;;8.80;;
19810;SDS011;10065;49.632;8.346;2023-10-13T03:17:15;17.27;;;8.83;;
19810;SDS011;10065;49.632;8.346;2023-10-13T03:19:44;20.40;;;9.07;;
19810;SDS011;10065;49.632;8.346;2023-10-13T03:22:17;21.03;;;7.77;;
19810;SDS011;10065;49.632;8.346;2023-10-13T03:24:45;15.03;;;8.13;;
19810;SDS011;10065;49.632;8.346;2023-10-13T03:27:14;15.30;;;8.27;;
19810;SDS011;10065;49.632;8.346;2023-10-13T03:29:43;16.67;;;8.13;;
19810;SDS011;10065;49.632;8.346;2023-10-13T03:32:16;25.57;;;8.00;;
19810;SDS011;10065;49.632;8.346;2023-10-13T03:34:45;17.40;;;7.93;;
19810;SDS011;10065;49.632;8.346;2023-10-13T03:37:33;17.43;;;7.60;;
19810;SDS011;10065;49.632;8.346;2023-10-13T03:40:06;17.53;;;7.53;;
19810;SDS011;10065;49.632;8.346;2023-10-13T03:42:56;17.43;;;7.83;;
19810;SDS011;10065;49.632;8.346;2023-10-13T03:45:31;17.77;;;7.90;;
19810;SDS011;10065;49.632;8.346;2023-10-13T03:48:07;15.17;;;8.47;;
19810;SDS011;10065;49.632;8.346;2023-10-13T03:50:55;17.07;;;8.07;;
19810;SDS011;10065;49.632;8.346;2023-10-13T03:53:29;15.10;;;7.37;;
19810;SDS011;10065;49.632;8.346;2023-10-13T03:56:19;18.90;;;7.30;;
19810;SDS011;10065;49.632;8.346;2023-10-13T03:58:58;18.03;;;7.33;;
19810;SDS011;10065;49.632;8.346;2023-10-13T04:01:31;19.27;;;8.63;;
19810;SDS011;10065;49.632;8.346;2023-10-13T04:04:12;14.10;;;7.37;;
19810;SDS011;10065;49.632;8.346;2023-10-13T04:06:42;22.73;;;8.10;;
19810;SDS011;10065;49.632;8.346;2023-10-13T04:09:24;13.10;;;7.40;;
19810;SDS011;10065;49.632;8.346;2023-10-13T04:12:10;14.47;;;7.50;;
19810;SDS011;10065;49.632;8.346;2023-10-13T04:15:09;17.33;;;7.93;;
19810;SDS011;10065;49.632;8.346;2023-10-13T04:17:46;18.47;;;7.40;;
19810;SDS011;10065;49.632;8.346;2023-10-13T04:20:16;15.80;;;7.57;;
19810;SDS011;10065;49.632;8.346;2023-10-13T04:23:04;18.27;;;7.47;;
19810;SDS011;10065;49.632;8.346;2023-10-13T04:25:45;16.67;;;7.27;;
19810;SDS011;10065;49.632;8.346;2023-10-13T04:28:34;25.70;;;11.67;;
19810;SDS011;10065;49.632;8.346;2023-10-13T04:31:04;21.47;;;8.40;;
19810;SDS011;10065;49.632;8.346;2023-10-13T04:33:51;17.47;;;7.60;;
19810;SDS011;10065;49.632;8.346;2023-10-13T04:36:23;14.63;;;7.10;;
19810;SDS011;10065;49.632;8.346;2023-10-13T04:39:03;20.67;;;7.20;;
19810;SDS011;10065;49.632;8.346;2023-10-13T04:41:40;17.47;;;8.03;;
19810;SDS011;10065;49.632;8.346;2023-10-13T04:44:12;14.93;;;7.87;;
19810;SDS011;10065;49.632;8.346;2023-10-13T04:47:11;18.50;;;8.03;;
19810;SDS011;10065;49.632;8.346;2023-10-13T04:49:44;13.27;;;7.40;;
19810;SDS011;10065;49.632;8.346;2023-10-13T04:52:20;17.83;;;7.53;;
19810;SDS011;10065;49.632;8.346;2023-10-13T04:55:11;15.90;;;7.83;;
19810;SDS011;10065;49.632;8.346;2023-10-13T04:57:59;18.43;;;7.13;;
19810;SDS011;10065;49.632;8.346;2023-10-13T05:00:41;13.63;;;7.33;;
19810;SDS011;10065;49.632;8.346;2023-10-13T05:03:50;18.73;;;8.10;;
19810;SDS011;10065;49.632;8.346;2023-10-13T05:06:35;16.97;;;7.77;;
19810;SDS011;10065;49.632;8.346;2023-10-13T05:09:21;18.07;;;7.73;;
19810;SDS011;10065;49.632;8.346;2023-10-13T05:12:07;16.73;;;7.97;;
19810;SDS011;10065;49.632;8.346;2023-10-13T05:14:52;19.30;;;8.23;;
19810;SDS011;10065;49.632;8.346;2023-10-13T05:17:38;18.03;;;6.70;;
19810;SDS011;10065;49.632;8.346;2023-10-13T05:20:23;21.27;;;7.50;;
19810;SDS011;10065;49.632;8.346;2023-10-13T05:23:08;21.13;;;7.73;;
19810;SDS011;10065;49.632;8.346;2023-10-13T05:25:55;16.23;;;6.97;;
19810;SDS011;10065;49.632;8.346;2023-10-13T05:28:40;14.30;;;7.00;;
19810;SDS011;10065;49.632;8.346;2023-10-13T05:31:32;25.10;;;9.10;;
19810;SDS011;10065;49.632;8.346;2023-10-13T05:34:18;24.03;;;8.03;;
19810;SDS011;10065;49.632;8.346;2023-10-13T05:37:03;19.70;;;8.53;;
19810;SDS011;10065;49.632;8.346;2023-10-13T05:39:48;16.33;;;7.33;;
19810;SDS011;10065;49.632;8.346;2023-10-13T05:42:35;16.30;;;8.00;;
19810;SDS011;10065;49.632;8.346;2023-10-13T05:45:20;19.33;;;7.80;;
19810;SDS011;10065;49.632;8.346;2023-10-13T05:48:06;23.57;;;8.40;;
19810;SDS011;10065;49.632;8.346;2023-10-13T05:50:39;15.40;;;7.97;;
19810;SDS011;10065;49.632;8.346;2023-10-13T05:53:37;18.67;;;7.63;;
19810;SDS011;10065;49.632;8.346;2023-10-13T05:56:22;18.63;;;8.30;;
19810;SDS011;10065;49.632;8.346;2023-10-13T05:59:08;22.27;;;8.80;;
19810;SDS011;10065;49.632;8.346;2023-10-13T06:01:54;19.03;;;8.67;;
19810;SDS011;10065;49.632;8.346;2023-10-13T06:04:48;19.40;;;7.83;;
19810;SDS011;10065;49.632;8.346;2023-10-13T06:07:33;21.03;;;8.63;;
19810;SDS011;10065;49.632;8.346;2023-10-13T06:10:19;16.63;;;8.27;;
19810;SDS011;10065;49.632;8.346;2023-10-13T06:13:00;21.10;;;9.17;;
19810;SDS011;10065;49.632;8.346;2023-10-13T06:15:48;21.67;;;8.47;;
19810;SDS011;10065;49.632;8.346;2023-10-13T06:18:33;19.73;;;8.87;;
19810;SDS011;10065;49.632;8.346;2023-10-13T06:21:19;17.57;;;8.90;;
19810;SDS011;10065;49.632;8.346;2023-10-13T06:24:05;22.10;;;9.10;;
19810;SDS011;10065;49.632;8.346;2023-10-13T06:26:53;17.03;;;7.90;;
19810;SDS011;10065;49.632;8.346;2023-10-13T06:29:53;19.30;;;7.73;;
19810;SDS011;10065;49.632;8.346;2023-10-13T06:32:23;26.27;;;7.67;;
19810;SDS011;10065;49.632;8.346;2023-10-13T06:34:52;18.77;;;8.80;;
19810;SDS011;10065;49.632;8.346;2023-10-13T06:37:24;18.97;;;8.27;;
19810;SDS011;10065;49.632;8.346;2023-10-13T06:39:55;18.63;;;8.37;;
19810;SDS011;10065;49.632;8.346;2023-10-13T06:42:25;21.97;;;8.07;;
19810;SDS011;10065;49.632;8.346;2023-10-13T06:44:54;14.63;;;7.33;;
19810;SDS011;10065;49.632;8.346;2023-10-13T06:47:24;22.70;;;8.30;;
19810;SDS011;10065;49.632;8.346;2023-10-13T06:49:54;20.40;;;8.03;;
19810;SDS011;10065;49.632;8.346;2023-10-13T06:52:23;23.03;;;7.47;;
19810;SDS011;10065;49.632;8.346;2023-10-13T06:54:56;20.50;;;7.57;;
19810;SDS011;10065;49.632;8.346;2023-10-13T06:57:24;15.60;;;7.60;;
19810;SDS011;10065;49.632;8.346;2023-10-13T06:59:52;20.10;;;8.67;;
19810;SDS011;10065;49.632;8.346;2023-10-13T07:02:22;13.37;;;7.50;;
19810;SDS011;10065;49.632;8.346;2023-10-13T07:05:00;17.60;;;7.23;;
19810;SDS011;10065;49.632;8.346;2023-10-13T07:07:34;19.97;;;7.20;;
19810;SDS011;10065;49.632;8.346;2023-10-13T07:10:07;12.97;;;6.73;;
19810;SDS011;10065;49.632;8.346;2023-10-13T07:12:36;14.57;;;8.13;;
19810;SDS011;10065;49.632;8.346;2023-10-13T07:15:09;18.87;;;8.87;;
19810;SDS011;10065;49.632;8.346;2023-10-13T07:17:47;13.57;;;7.00;;
19810;SDS011;10065;49.632;8.346;2023-10-13T07:20:21;17.37;;;7.53;;
19810;SDS011;10065;49.632;8.346;2023-10-13T07:22:59;16.73;;;7.17;;
19810;SDS011;10065;49.632;8.346;2023-10-13T07:25:33;20.23;;;7.40;;
19810;SDS011;10065;49.632;8.346;2023-10-13T07:28:04;20.93;;;8.00;;
19810;SDS011;10065;49.632;8.346;2023-10-13T07:30:34;17.73;;;7.00;;
19810;SDS011;10065;49.632;8.346;2023-10-13T07:33:09;13.03;;;7.67;;
19810;SDS011;10065;49.632;8.346;2023-10-13T07:35:39;12.70;;;6.50;;
19810;SDS011;10065;49.632;8.346;2023-10-13T07:38:08;15.43;;;6.63;;
19810;SDS011;10065;49.632;8.346;2023-10-13T07:40:36;19.53;;;7.23;;
19810;SDS011;10065;49.632;8.346;2023-10-13T07:43:16;15.20;;;6.53;;
19810;SDS011;10065;49.632;8.346;2023-10-13T07:45:47;16.40;;;6.30;;
19810;SDS011;10065;49.632;8.346;2023-10-13T07:48:20;16.27;;;7.10;;
19810;SDS011;10065;49.632;8.346;2023-10-13T07:50:58;15.33;;;6.87;;
19810;SDS011;10065;49.632;8.346;2023-10-13T07:53:29;18.73;;;6.70;;
19810;SDS011;10065;49.632;8.346;2023-10-13T07:56:01;16.70;;;6.97;;
19810;SDS011;10065;49.632;8.346;2023-10-13T07:58:32;16.20;;;6.63;;
19810;SDS011;10065;49.632;8.346;2023-10-13T08:01:00;17.23;;;6.70;;
19810;SDS011;10065;49.632;8.346;2023-10-13T08:03:35;25.60;;;7.47;;
19810;SDS011;10065;49.632;8.346;2023-10-13T08:06:11;11.83;;;6.13;;
19810;SDS011;10065;49.632;8.346;2023-10-13T08:08:52;19.80;;;7.60;;
19810;SDS011;10065;49.632;8.346;2023-10-13T08:11:34;19.33;;;6.83;;
19810;SDS011;10065;49.632;8.346;2023-10-13T08:14:04;16.63;;;7.10;;
19810;SDS011;10065;49.632;8.346;2023-10-13T08:17:03;14.43;;;6.90;;
19810;SDS011;10065;49.632;8.346;2023-10-13T08:19:35;16.53;;;6.63;;
19810;SDS011;10065;49.632;8.346;2023-10-13T08:22:11;15.07;;;6.27;;
19810;SDS011;10065;49.632;8.346;2023-10-13T08:24:52;19.10;;;7.03;;
19810;SDS011;10065;49.632;8.346;2023-10-13T08:27:41;14.43;;;6.23;;
19810;SDS011;10065;49.632;8.346;2023-10-13T08:30:51;16.10;;;6.67;;
19810;SDS011;10065;49.632;8.346;2023-10-13T08:33:20;13.67;;;5.63;;
19810;SDS011;10065;49.632;8.346;2023-10-13T08:35:53;11.50;;;5.80;;
19810;SDS011;10065;49.632;8.346;2023-10-13T08:38:54;12.07;;;5.53;;
19810;SDS011;10065;49.632;8.346;2023-10-13T08:41:22;15.57;;;6.30;;
19810;SDS011;10065;49.632;8.346;2023-10-13T08:43:56;10.37;;;6.47;;
19810;SDS011;10065;49.632;8.346;2023-10-13T08:46:31;13.43;;;6.33;;
19810;SDS011;10065;49.632;8.346;2023-10-13T08:49:18;22.50;;;6.63;;
19810;SDS011;10065;49.632;8.346;2023-10-13T08:51:51;16.17;;;6.57;;
19810;SDS011;10065;49.632;8.346;2023-10-13T08:54:32;17.50;;;6.10;;
19810;SDS011;10065;49.632;8.346;2023-10-13T08:57:05;17.07;;;6.00;;
19810;SDS011;10065;49.632;8.346;2023-10-13T08:59:59;15.45;;;6.03;;
19810;SDS011;10065;49.632;8.346;2023-10-13T09:02:41;13.88;;;6.10;;
19810;SDS011;10065;49.632;8.346;2023-10-13T09:05:48;17.85;;;5.97;;
19810;SDS011;10065;49.632;8.346;2023-10-13T09:08:34;13.48;;;5.30;;
19810;SDS011;10065;49.632;8.346;2023-10-13T09:11:31;13.13;;;5.72;;
19810;SDS011;10065;49.632;8.346;2023-10-13T09:14:16;12.95;;;5.38;;
19810;SDS011;10065;49.632;8.346;2023-10-13T09:17:01;10.75;;;5.18;;
19810;SDS011;10065;49.632;8.346;2023-10-13T09:19:43;11.80;;;5.38;;
19810;SDS011;10065;49.632;8.346;2023-10-13T09:22:19;15.60;;;5.63;;
19810;SDS011;10065;49.632;8.346;2023-10-13T09:24:55;12.48;;;5.22;;
19810;SDS011;10065;49.632;8.346;2023-10-13T09:27:25;17.77;;;5.43;;
19810;SDS011;10065;49.632;8.346;2023-10-13T09:30:00;12.05;;;5.47;;
19810;SDS011;10065;49.632;8.346;2023-10-13T09:32:36;9.80;;;5.40;;
19810;SDS011;10065;49.632;8.346;2023-10-13T09:35:16;13.30;;;5.10;;
19810;SDS011;10065;49.632;8.346;2023-10-13T09:37:46;11.13;;;5.00;;
19810;SDS011;10065;49.632;8.346;2023-10-13T09:40:17;13.85;;;5.45;;
19810;SDS011;10065;49.632;8.346;2023-10-13T09:43:01;12.45;;;5.07;;
19810;SDS011;10065;49.632;8.346;2023-10-13T09:45:33;10.60;;;5.00;;
19810;SDS011;10065;49.632;8.346;2023-10-13T09:48:07;14.73;;;6.35;;
19810;SDS011;10065;49.632;8.346;2023-10-13T09:50:43;15.07;;;6.05;;
19810;SDS011;10065;49.632;8.346;2023-10-13T09:53:14;13.23;;;6.57;;
19810;SDS011;10065;49.632;8.346;2023-10-13T09:55:47;13.50;;;5.90;;
19810;SDS011;10065;49.632;8.346;2023-10-13T09:58:17;11.30;;;5.25;;
19810;SDS011;10065;49.632;8.346;2023-10-13T10:00:46;13.05;;;6.28;;
19810;SDS011;10065;49.632;8.346;2023-10-13T10:03:24;9.70;;;5.22;;
19810;SDS011;10065;49.632;8.346;2023-10-13T10:06:06;19.98;;;10.80;;
19810;SDS011;10065;49.632;8.346;2023-10-13T10:08:42;15.93;;;5.95;;
19810;SDS011;10065;49.632;8.346;2023-10-13T10:11:41;19.23;;;7.13;;
19810;SDS011;10065;49.632;8.346;2023-10-13T10:14:28;18.33;;;9.55;;
19810;SDS011;10065;49.632;8.346;2023-10-13T10:17:09;13.63;;;8.13;;
19810;SDS011;10065;49.632;8.346;2023-10-13T10:19:47;11.40;;;6.40;;
19810;SDS011;10065;49.632;8.346;2023-10-13T10:22:24;13.45;;;5.95;;
19810;SDS011;10065;49.632;8.346;2023-10-13T10:24:57;13.05;;;5.70;;
19810;SDS011;10065;49.632;8.346;2023-10-13T10:27:27;12.70;;;5.97;;
19810;SDS011;10065;49.632;8.346;2023-10-13T10:29:57;16.08;;;5.82;;
19810;SDS011;10065;49.632;8.346;2023-10-13T10:32:32;10.70;;;5.57;;
19810;SDS011;10065;49.632;8.346;2023-10-13T10:35:07;12.75;;;5.88;;
19810;SDS011;10065;49.632;8.346;2023-10-13T10:37:41;10.57;;;5.40;;
19810;SDS011;10065;49.632;8.346;2023-10-13T10:40:14;12.32;;;5.50;;
19810;SDS011;10065;49.632;8.346;2023-10-13T10:43:00;16.98;;;5.70;;
19810;SDS011;10065;49.632;8.346;2023-10-13T10:45:45;12.40;;;4.97;;
19810;SDS011;10065;49.632;8.346;2023-10-13T10:48:15;14.98;;;6.07;;
19810;SDS011;10065;49.632;8.346;2023-10-13T10:50:54;10.00;;;5.38;;
19810;SDS011;10065;49.632;8.346;2023-10-13T10:53:22;9.77;;;5.97;;
19810;SDS011;10065;49.632;8.346;2023-10-13T10:56:05;15.20;;;6.68;;
19810;SDS011;10065;49.632;8.346;2023-10-13T10:58:47;13.13;;;6.60;;
19810;SDS011;10065;49.632;8.346;2023-10-13T11:01:21;11.02;;;6.15;;
19810;SDS011;10065;49.632;8.346;2023-10-13T11:03:53;9.88;;;5.40;;
19810;SDS011;10065;49.632;8.346;2023-10-13T11:06:24;9.10;;;4.90;;
19810;SDS011;10065;49.632;8.346;2023-10-13T11:09:02;12.23;;;5.10;;
19810;SDS011;10065;49.632;8.346;2023-10-13T11:11:34;9.77;;;4.97;;
19810;SDS011;10065;49.632;8.346;2023-10-13T11:14:04;12.10;;;5.20;;
19810;SDS011;10065;49.632;8.346;2023-10-13T11:16:47;8.88;;;4.55;;
19810;SDS011;10065;49.632;8.346;2023-10-13T11:19:20;11.43;;;4.57;;
19810;SDS011;10065;49.632;8.346;2023-10-13T11:21:54;10.68;;;5.05;;
19810;SDS011;10065;49.632;8.346;2023-10-13T11:24:22;12.30;;;5.43;;
19810;SDS011;10065;49.632;8.346;2023-10-13T11:26:50;26.33;;;9.43;;
19810;SDS011;10065;49.632;8.346;2023-10-13T11:29:30;18.15;;;7.40;;
19810;SDS011;10065;49.632;8.346;2023-10-13T11:32:00;9.95;;;5.07;;
19810;SDS011;10065;49.632;8.346;2023-10-13T11:34:29;9.82;;;4.40;;
19810;SDS011;10065;49.632;8.346;2023-10-13T11:37:06;8.20;;;4.32;;
19810;SDS011;10065;49.632;8.346;2023-10-13T11:39:48;8.48;;;4.60;;
19810;SDS011;10065;49.632;8.346;2023-10-13T11:42:18;12.25;;;4.40;;
19810;SDS011;10065;49.632;8.346;2023-10-13T11:44:47;7.65;;;4.35;;
19810;SDS011;10065;49.632;8.346;2023-10-13T11:47:27;7.90;;;4.40;;
19810;SDS011;10065;49.632;8.346;2023-10-13T11:50:14;10.23;;;4.72;;
19810;SDS011;10065;49.632;8.346;2023-10-13T11:52:58;8.88;;;4.63;;
19810;SDS011;10065;49.632;8.346;2023-10-13T11:55:26;11.32;;;4.30;;
19810;SDS011;10065;49.632;8.346;2023-10-13T11:57:54;11.80;;;5.25;;
19810;SDS011;10065;49.632;8.346;2023-10-13T12:00:27;12.75;;;5.10;;
19810;SDS011;10065;49.632;8.346;2023-10-13T12:03:15;13.23;;;4.85;;
19810;SDS011;10065;49.632;8.346;2023-10-13T12:06:00;11.45;;;4.65;;
19810;SDS011;10065;49.632;8.346;2023-10-13T12:08:45;9.73;;;4.68;;
19810;SDS011;10065;49.632;8.346;2023-10-13T12:11:19;12.65;;;4.50;;
19810;SDS011;10065;49.632;8.346;2023-10-13T12:13:59;8.68;;;4.43;;
19810;SDS011;10065;49.632;8.346;2023-10-13T12:16:39;12.82;;;5.28;;
19810;SDS011;10065;49.632;8.346;2023-10-13T12:19:07;10.05;;;4.85;;
19810;SDS011;10065;49.632;8.346;2023-10-13T12:21:37;15.52;;;7.78;;
19810;SDS011;10065;49.632;8.346;2023-10-13T12:24:05;14.27;;;6.10;;
19810;SDS011;10065;49.632;8.346;2023-10-13T12:26:38;12.15;;;5.30;;
19810;SDS011;10065;49.632;8.346;2023-10-13T12:29:09;8.82;;;4.45;;
19810;SDS011;10065;49.632;8.346;2023-10-13T12:31:50;15.23;;;5.60;;
19810;SDS011;10065;49.632;8.346;2023-10-13T12:34:27;13.05;;;4.45;;
19810;SDS011;10065;49.632;8.346;2023-10-13T12:37:18;11.50;;;4.60;;
19810;SDS011;10065;49.632;8.346;2023-10-13T12:40:05;8.95;;;4.22;;
19810;SDS011;10065;49.632;8.346;2023-10-13T12:42:48;15.95;;;5.30;;
19810;SDS011;10065;49.632;8.346;2023-10-13T12:45:37;10.45;;;4.25;;
19810;SDS011;10065;49.632;8.346;2023-10-13T12:48:25;10.18;;;3.80;;
19810;SDS011;10065;49.632;8.346;2023-10-13T12:51:10;7.45;;;4.15;;
19810;SDS011;10065;49.632;8.346;2023-10-13T12:53:47;9.70;;;4.05;;
19810;SDS011;10065;49.632;8.346;2023-10-13T12:56:15;10.75;;;4.75;;
19810;SDS011;10065;49.632;8.346;2023-10-13T12:58:43;10.85;;;3.97;;
19810;SDS011;10065;49.632;8.346;2023-10-13T13:01:18;9.95;;;4.60;;
19810;SDS011;10065;49.632;8.346;2023-10-13T13:03:49;14.23;;;4.47;;
19810;SDS011;10065;49.632;8.346;2023-10-13T13:06:17;10.77;;;4.18;;
19810;SDS011;10065;49.632;8.346;2023-10-13T13:08:51;10.32;;;3.60;;
19810;SDS011;10065;49.632;8.346;2023-10-13T13:11:19;11.90;;;3.80;;
19810;SDS011;10065;49.632;8.346;2023-10-13T13:13:50;12.80;;;3.40;;
19810;SDS011;10065;49.632;8.346;2023-10-13T13:16:18;10.52;;;3.63;;
19810;SDS011;10065;49.632;8.346;2023-10-13T13:18:52;11.40;;;3.55;;
19810;SDS011;10065;49.632;8.346;2023-10-13T13:21:22;13.50;;;3.88;;
19810;SDS011;10065;49.632;8.346;2023-10-13T13:23:50;7.20;;;3.55;;
19810;SDS011;10065;49.632;8.346;2023-10-13T13:26:21;8.93;;;4.13;;
19810;SDS011;10065;49.632;8.346;2023-10-13T13:28:49;10.32;;;3.50;;
19810;SDS011;10065;49.632;8.346;2023-10-13T13:31:17;9.35;;;3.70;;
19810;SDS011;10065;49.632;8.346;2023-10-13T13:33:45;10.05;;;3.92;;
19810;SDS011;10065;49.632;8.346;2023-10-13T13:36:14;9.93;;;3.97;;
19810;SDS011;10065;49.632;8.346;2023-10-13T13:38:43;11.30;;;3.67;;
19810;SDS011;10065;49.632;8.346;2023-10-13T13:41:13;9.65;;;3.22;;
19810;SDS011;10065;49.632;8.346;2023-10-13T13:43:42;15.15;;;4.10;;
19810;SDS011;10065;49.632;8.346;2023-10-13T13:46:22;10.32;;;3.95;;
19810;SDS011;10065;49.632;8.346;2023-10-13T13:48:54;10.25;;;3.55;;
19810;SDS011;10065;49.632;8.346;2023-10-13T13:51:27;14.45;;;3.92;;
19810;SDS011;10065;49.632;8.346;2023-10-13T13:53:55;15.05;;;4.47;;
19810;SDS011;10065;49.632;8.346;2023-10-13T13:56:24;11.38;;;3.65;;
19810;SDS011;10065;49.632;8.346;2023-10-13T13:58:54;13.73;;;4.57;;
19810;SDS011;10065;49.632;8.346;2023-10-13T14:01:22;17.35;;;6.72;;
19810;SDS011;10065;49.632;8.346;2023-10-13T14:03:52;9.50;;;3.55;;
19810;SDS011;10065;49.632;8.346;2023-10-13T14:06:24;9.70;;;3.58;;
19810;SDS011;10065;49.632;8.346;2023-10-13T14:08:55;17.00;;;4.10;;
19810;SDS011;10065;49.632;8.346;2023-10-13T14:11:26;6.82;;;4.15;;
19810;SDS011;10065;49.632;8.346;2023-10-13T14:14:14;15.68;;;3.78;;
19810;SDS011;10065;49.632;8.346;2023-10-13T14:16:55;9.25;;;3.05;;
19810;SDS011;10065;49.632;8.346;2023-10-13T14:19:29;7.72;;;3.22;;
19810;SDS011;10065;49.632;8.346;2023-10-13T14:21:58;8.15;;;3.17;;
19810;SDS011;10065;49.632;8.346;2023-10-13T14:24:34;9.57;;;3.85;;
19810;SDS011;10065;49.632;8.346;2023-10-13T14:27:09;8.20;;;3.53;;
19810;SDS011;10065;49.632;8.346;2023-10-13T14:29:42;15.32;;;4.60;;
19810;SDS011;10065;49.632;8.346;2023-10-13T14:32:10;12.65;;;4.80;;
19810;SDS011;10065;49.632;8.346;2023-10-13T14:34:39;18.83;;;4.63;;
19810;SDS011;10065;49.632;8.346;2023-10-13T14:37:07;9.63;;;4.20;;
19810;SDS011;10065;49.632;8.346;2023-10-13T14:39:40;11.35;;;5.07;;
19810;SDS011;10065;49.632;8.346;2023-10-13T14:42:08;15.38;;;5.43;;
19810;SDS011;10065;49.632;8.346;2023-10-13T14:44:36;10.30;;;5.00;;
19810;SDS011;10065;49.632;8.346;2023-10-13T14:47:04;9.75;;;4.50;;
19810;SDS011;10065;49.632;8.346;2023-10-13T14:49:35;11.05;;;4.50;;
19810;SDS011;10065;49.632;8.346;2023-10-13T14:52:03;12.30;;;4.38;;
19810;SDS011;10065;49.632;8.346;2023-10-13T14:54:31;10.05;;;4.30;;
19810;SDS011;10065;49.632;8.346;2023-10-13T14:57:03;11.32;;;4.20;;
19810;SDS011;10065;49.632;8.346;2023-10-13T14:59:31;15.68;;;4.32;;
19810;SDS011;10065;49.632;8.346;2023-10-13T15:02:05;14.38;;;4.80;;
19810;SDS011;10065;49.632;8.346;2023-10-13T15:04:33;9.65;;;4.20;;
19810;SDS011;10065;49.632;8.346;2023-10-13T15:07:01;14.98;;;4.13;;
19810;SDS011;10065;49.632;8.346;2023-10-13T15:09:29;9.18;;;4.40;;
19810;SDS011;10065;49.632;8.346;2023-10-13T15:11:57;13.05;;;4.22;;
19810;SDS011;10065;49.632;8.346;2023-10-13T15:14:26;15.70;;;4.40;;
19810;SDS011;10065;49.632;8.346;2023-10-13T15:16:54;12.65;;;4.25;;
19810;SDS011;10065;49.632;8.346;2023-10-13T15:19:27;15.65;;;4.88;;
19810;SDS011;10065;49.632;8.346;2023-10-13T15:21:56;8.52;;;4.10;;
19810;SDS011;10065;49.632;8.346;2023-10-13T15:24:25;13.93;;;4.85;;
19810;SDS011;10065;49.632;8.346;2023-10-13T15:26:58;16.88;;;5.28;;